ANE2291 LESO-LEMD
Flight info
| Callsign | ANE2291 |
|---|---|
| Flight time | N/A |
| Altitude | 18000 |
| Route | PPN N857 BANEV |
| Aircraft | AT76/M-SDFGIRY/S |
Departure
| Time | 2026-04-12 10:22 |
|---|---|
| Airport | San Sebastián Airport (LESO) |
Arrival
| Time | N/A |
|---|---|
| Airport | Adolfo Suárez Madrid–Barajas Airport (LEMD) |
| Time | Latitude | Longitude | Altitude | Speed | Heading |
|---|---|---|---|---|---|
| 2026-04-12 10:02 | 43.35519 | -1.79357 | 13 ft | 0 kts | 219° |
| 2026-04-12 10:16 | 43.35516 | -1.79358 | 13 ft | 1 kts | 196° |
| 2026-04-12 10:17 | 43.35512 | -1.79347 | 14 ft | 1 kts | 101° |
| 2026-04-12 10:17 | 43.35520 | -1.79323 | 14 ft | 5 kts | 60° |
| 2026-04-12 10:17 | 43.35530 | -1.79284 | 14 ft | 0 kts | 85° |
| 2026-04-12 10:17 | 43.35527 | -1.79273 | 15 ft | 3 kts | 117° |
| 2026-04-12 10:18 | 43.35503 | -1.79257 | 15 ft | 4 kts | 177° |
| 2026-04-12 10:18 | 43.35471 | -1.79271 | 15 ft | 6 kts | 202° |
| 2026-04-12 10:18 | 43.35440 | -1.79295 | 17 ft | 9 kts | 211° |
| 2026-04-12 10:18 | 43.35384 | -1.79351 | 16 ft | 11 kts | 219° |
| 2026-04-12 10:19 | 43.35315 | -1.79428 | 16 ft | 14 kts | 219° |
| 2026-04-12 10:19 | 43.35203 | -1.79546 | 17 ft | 17 kts | 217° |
| 2026-04-12 10:19 | 43.35140 | -1.79619 | 16 ft | 18 kts | 220° |
| 2026-04-12 10:19 | 43.35070 | -1.79740 | 16 ft | 8 kts | 195° |
| 2026-04-12 10:20 | 43.35065 | -1.79702 | 17 ft | 6 kts | 42° |
| 2026-04-12 10:20 | 43.35075 | -1.79692 | 16 ft | 0 kts | 41° |
| 2026-04-12 10:21 | 43.35080 | -1.79686 | 17 ft | 12 kts | 37° |
| 2026-04-12 10:21 | 43.35311 | -1.79432 | 16 ft | 72 kts | 35° |
| 2026-04-12 10:21 | 43.35853 | -1.78843 | 20 ft | 124 kts | 34° |
| 2026-04-12 10:21 | 43.36631 | -1.78168 | 364 ft | 134 kts | 22° |
| 2026-04-12 10:22 | 43.37549 | -1.77859 | 785 ft | 148 kts | 2° |
| 2026-04-12 10:22 | 43.38628 | -1.77733 | 1266 ft | 160 kts | 353° |
| 2026-04-12 10:22 | 43.39684 | -1.78241 | 1841 ft | 164 kts | 326° |
| 2026-04-12 10:22 | 43.40653 | -1.79105 | 2320 ft | 168 kts | 338° |
| 2026-04-12 10:23 | 43.41830 | -1.79034 | 2831 ft | 173 kts | 7° |
| 2026-04-12 10:23 | 43.42954 | -1.79373 | 3421 ft | 170 kts | 319° |
| 2026-04-12 10:23 | 43.43442 | -1.80826 | 3966 ft | 174 kts | 276° |
| 2026-04-12 10:23 | 43.43467 | -1.82506 | 4466 ft | 182 kts | 257° |
| 2026-04-12 10:24 | 43.42668 | -1.83877 | 5012 ft | 196 kts | 208° |
| 2026-04-12 10:24 | 43.41304 | -1.84069 | 5534 ft | 206 kts | 163° |
| 2026-04-12 10:24 | 43.40154 | -1.82924 | 6050 ft | 211 kts | 121° |
| 2026-04-12 10:24 | 43.39825 | -1.80999 | 6556 ft | 209 kts | 78° |
| 2026-04-12 10:25 | 43.40305 | -1.79139 | 6996 ft | 208 kts | 63° |
| 2026-04-12 10:25 | 43.40802 | -1.77275 | 7450 ft | 209 kts | 82° |
| 2026-04-12 10:25 | 43.40490 | -1.75367 | 7954 ft | 212 kts | 123° |
| 2026-04-12 10:25 | 43.39376 | -1.74094 | 8457 ft | 210 kts | 161° |
| 2026-04-12 10:26 | 43.37956 | -1.74027 | 8968 ft | 206 kts | 199° |
| 2026-04-12 10:26 | 43.36736 | -1.75022 | 9541 ft | 201 kts | 214° |
| 2026-04-12 10:26 | 43.35590 | -1.76052 | 10093 ft | 193 kts | 211° |
| 2026-04-12 10:26 | 43.34439 | -1.76948 | 10553 ft | 186 kts | 207° |
| 2026-04-12 10:27 | 43.33295 | -1.77705 | 11049 ft | 179 kts | 204° |
| 2026-04-12 10:27 | 43.32163 | -1.78320 | 11539 ft | 171 kts | 199° |
| 2026-04-12 10:27 | 43.31043 | -1.78763 | 12022 ft | 162 kts | 196° |
| 2026-04-12 10:27 | 43.29977 | -1.79114 | 12515 ft | 155 kts | 193° |
| 2026-04-12 10:28 | 43.28918 | -1.79342 | 13032 ft | 158 kts | 189° |
| 2026-04-12 10:28 | 43.28176 | -1.79440 | 13389 ft | 160 kts | 186° |
| 2026-04-12 10:28 | 43.27501 | -1.79484 | 13716 ft | 161 kts | 184° |
| 2026-04-12 10:28 | 43.26373 | -1.79467 | 14213 ft | 163 kts | 181° |
| 2026-04-12 10:29 | 43.25241 | -1.79362 | 14688 ft | 163 kts | 179° |
| 2026-04-12 10:29 | 43.24112 | -1.79222 | 15171 ft | 162 kts | 179° |
| 2026-04-12 10:29 | 43.22989 | -1.79061 | 15668 ft | 162 kts | 178° |
| 2026-04-12 10:29 | 43.21873 | -1.78899 | 16160 ft | 160 kts | 179° |
| 2026-04-12 10:30 | 43.20779 | -1.78752 | 16655 ft | 156 kts | 180° |
| 2026-04-12 10:30 | 43.19713 | -1.78617 | 17152 ft | 151 kts | 180° |
| 2026-04-12 10:30 | 43.18612 | -1.78495 | 17282 ft | 168 kts | 180° |
| 2026-04-12 10:30 | 43.17384 | -1.78377 | 17412 ft | 186 kts | 180° |
| 2026-04-12 10:31 | 43.16054 | -1.78256 | 17500 ft | 195 kts | 179° |
| 2026-04-12 10:31 | 43.14650 | -1.78093 | 17627 ft | 209 kts | 178° |
| 2026-04-12 10:31 | 43.13160 | -1.77873 | 17745 ft | 221 kts | 177° |
| 2026-04-12 10:31 | 43.11618 | -1.77642 | 17831 ft | 230 kts | 177° |
| 2026-04-12 10:32 | 43.09996 | -1.77425 | 17933 ft | 236 kts | 178° |
| 2026-04-12 10:32 | 43.08514 | -1.77245 | 18019 ft | 241 kts | 178° |
| 2026-04-12 10:32 | 43.06917 | -1.77063 | 18067 ft | 247 kts | 178° |
| 2026-04-12 10:32 | 43.05293 | -1.76875 | 18065 ft | 252 kts | 178° |
| 2026-04-12 10:33 | 43.03533 | -1.76673 | 18079 ft | 256 kts | 178° |
| 2026-04-12 10:33 | 43.01855 | -1.76470 | 18079 ft | 260 kts | 178° |
| 2026-04-12 10:33 | 43.00118 | -1.76201 | 18084 ft | 263 kts | 175° |
| 2026-04-12 10:33 | 42.98380 | -1.75828 | 18079 ft | 266 kts | 173° |
| 2026-04-12 10:34 | 42.96746 | -1.75421 | 18084 ft | 268 kts | 172° |
| 2026-04-12 10:34 | 42.94951 | -1.74969 | 18077 ft | 262 kts | 173° |
| 2026-04-12 10:34 | 42.93168 | -1.74561 | 18070 ft | 258 kts | 174° |